Time;durP1;ratioP1;P1;durP2;ratioP2;P2;SDS_P1;SDS_P2;PMS_P1;PMS_P2;Temp;Humidity;BMP_temperature;BMP_pressure;BME280_temperature;BME280_humidity;BME280_pressure;Samples;Min_cycle;Max_cycle;Signal;HPM_P1;HPM_P2
2024/02/02 00:01:45;;;;;;;15.88;9.13;;;;;;;28.94;72.35;101306.19;5057165;28;70232;-41
2024/02/02 00:04:16;;;;;;;13.63;8.45;;;;;;;29.01;72.35;101308.94;5058593;28;65619;-44
2024/02/02 00:06:47;;;;;;;15.52;9.10;;;;;;;29.03;73.38;101314.13;5056563;28;69454;-43
2024/02/02 00:09:19;;;;;;;30.90;10.25;;;;;;;29.12;70.57;101321.94;5051456;28;66286;-42
2024/02/02 00:11:50;;;;;;;30.45;10.45;;;;;;;29.07;74.45;101307.34;5046737;28;69420;-42
2024/02/02 00:14:21;;;;;;;27.33;10.30;;;;;;;29.16;74.42;101323.19;5023767;28;66444;-42
2024/02/02 00:16:52;;;;;;;21.90;10.48;;;;;;;29.16;71.89;101322.38;5053615;28;70168;-41
2024/02/02 00:19:23;;;;;;;21.23;10.68;;;;;;;29.24;75.06;101341.13;5049429;28;66660;-44
2024/02/02 00:21:54;;;;;;;15.75;9.68;;;;;;;29.27;75.04;101342.59;5049029;28;71581;-44
2024/02/02 00:24:25;;;;;;;14.60;8.70;;;;;;;29.26;74.26;101325.56;5034273;28;65574;-44
2024/02/02 00:26:56;;;;;;;21.00;9.90;;;;;;;29.36;74.19;101339.53;5021757;28;69314;-43
2024/02/02 00:29:27;;;;;;;21.92;10.20;;;;;;;29.39;76.06;101346.41;5057279;28;67449;-43
2024/02/02 00:31:57;;;;;;;14.90;9.90;;;;;;;29.42;76.55;101350.56;5051396;28;70303;-44
2024/02/02 00:34:28;;;;;;;16.25;9.63;;;;;;;29.47;76.30;101353.50;5047112;28;66443;-44
2024/02/02 00:36:59;;;;;;;17.07;9.57;;;;;;;29.49;73.68;101359.56;5037636;28;70316;-43
2024/02/02 00:39:31;;;;;;;15.57;9.80;;;;;;;29.46;77.64;101354.56;5052944;28;65502;-43
2024/02/02 00:42:01;;;;;;;16.45;9.77;;;;;;;29.49;77.45;101357.69;5045850;28;70049;-43
2024/02/02 00:44:32;;;;;;;21.55;10.63;;;;;;;29.54;76.69;101366.03;5043827;28;66510;-43
2024/02/02 00:47:03;;;;;;;23.80;9.30;;;;;;;29.56;77.53;101371.22;5057149;28;70326;-43
2024/02/02 00:49:33;;;;;;;21.05;9.57;;;;;;;29.58;76.90;101372.69;5039320;28;66284;-43
2024/02/02 00:52:05;;;;;;;16.77;8.93;;;;;;;29.55;77.42;101365.00;5043474;28;69775;-43
2024/02/02 00:54:35;;;;;;;18.48;10.02;;;;;;;29.61;78.46;101376.88;5050313;28;65667;-42
2024/02/02 00:57:06;;;;;;;13.60;9.90;;;;;;;29.66;78.21;101390.66;5042567;28;70858;-43
2024/02/02 00:59:37;;;;;;;18.30;9.68;;;;;;;29.62;78.99;101383.97;5045290;28;66113;-42
2024/02/02 01:02:07;;;;;;;19.00;9.80;;;;;;;29.64;77.79;101381.91;5049597;28;70116;-44
2024/02/02 01:04:38;;;;;;;15.55;9.48;;;;;;;29.59;77.97;101384.38;5033926;28;66350;-43
2024/02/02 01:07:08;;;;;;;14.60;9.57;;;;;;;29.71;79.27;101396.31;5049628;28;71347;-43
2024/02/02 01:09:39;;;;;;;16.45;9.35;;;;;;;29.65;79.12;101397.13;5049918;28;66593;-44
2024/02/02 01:12:10;;;;;;;10.70;8.93;;;;;;;29.71;79.67;101401.72;5039022;28;70375;-45
2024/02/02 01:14:42;;;;;;;16.67;9.52;;;;;;;29.78;79.00;101412.56;5054041;28;65918;-45
2024/02/02 01:17:13;;;;;;;;;;;;;;;29.65;80.11;101420.63;5053664;28;70330;-44
2024/02/02 01:19:43;;;;;;;10.65;8.50;;;;;;;29.81;73.90;101423.84;5051531;28;66080;-44
2024/02/02 01:22:15;;;;;;;13.02;8.82;;;;;;;29.77;73.00;101417.13;5032879;28;69160;-44
2024/02/02 01:24:46;;;;;;;10.18;8.70;;;;;;;29.75;73.08;101419.19;5037862;28;65241;-45
2024/02/02 01:27:17;;;;;;;11.00;10.07;;;;;;;29.78;72.79;101429.66;5055632;28;70869;-43
2024/02/02 01:29:48;;;;;;;12.50;11.02;;;;;;;29.79;72.78;101425.91;5057685;28;66556;-44
2024/02/02 01:32:19;;;;;;;13.15;11.52;;;;;;;29.81;72.26;101429.25;5059055;28;70089;-43
2024/02/02 01:34:51;;;;;;;12.80;11.50;;;;;;;29.82;72.02;101422.78;5035974;28;66613;-42
2024/02/02 01:37:22;;;;;;;15.02;11.43;;;;;;;29.84;71.95;101428.84;5052629;28;70352;-43
2024/02/02 01:39:53;;;;;;;13.75;11.88;;;;;;;29.82;72.08;101425.50;5038843;28;67137;-42
2024/02/02 01:42:23;;;;;;;11.60;10.43;;;;;;;29.77;72.14;101405.50;5050930;28;69532;-42
2024/02/02 01:44:54;;;;;;;11.73;10.63;;;;;;;29.90;72.12;101427.19;5040424;28;66760;-42
2024/02/02 01:47:26;;;;;;;11.55;10.38;;;;;;;29.80;71.88;101405.91;5039413;28;70734;-44
2024/02/02 01:49:57;;;;;;;12.77;10.03;;;;;;;29.92;72.11;101430.53;5044788;28;65958;-43
2024/02/02 01:52:29;;;;;;;10.70;9.77;;;;;;;29.87;71.61;101421.38;5050353;28;70542;-43
2024/02/02 01:55:00;;;;;;;10.90;10.00;;;;;;;29.81;71.29;101407.59;5040761;28;65009;-42
2024/02/02 01:57:31;;;;;;;11.32;9.88;;;;;;;29.94;71.61;101433.88;5038113;28;70452;-42
2024/02/02 02:00:04;;;;;;;10.55;9.50;;;;;;;29.95;71.24;101435.56;5040126;28;67240;-43
2024/02/02 02:02:38;;;;;;;11.10;10.02;;;;;;;29.85;71.38;101424.25;5045647;28;69847;-43
2024/02/02 02:05:10;;;;;;;10.07;9.27;;;;;;;30.00;71.39;101434.94;5038412;28;66497;-43
2024/02/02 02:07:44;;;;;;;12.05;9.48;;;;;;;30.01;71.41;101436.63;5037624;28;70157;-43
2024/02/02 02:10:15;;;;;;;11.05;10.18;;;;;;;30.02;71.30;101440.97;5038945;28;66100;-42
2024/02/02 02:12:46;;;;;;;12.43;11.10;;;;;;;29.96;71.03;101430.97;5049727;28;69868;-42
2024/02/02 02:15:17;;;;;;;12.70;11.45;;;;;;;30.03;71.11;101448.03;5034457;28;66419;-42
2024/02/02 02:17:51;;;;;;;14.77;13.25;;;;;;;30.02;71.38;101452.63;5040759;28;70151;-43
2024/02/02 02:20:25;;;;;;;15.35;12.93;;;;;;;30.06;71.44;101458.47;5048560;28;65937;-43
2024/02/02 02:22:56;;;;;;;13.40;12.20;;;;;;;29.95;71.22;101426.56;5039400;28;70935;-43
2024/02/02 02:25:27;;;;;;;14.48;11.63;;;;;;;30.08;70.81;101450.16;5047341;28;66008;-44
2024/02/02 02:27:57;;;;;;;14.82;12.20;;;;;;;30.01;70.68;101437.44;5053865;28;69767;-44
2024/02/02 02:30:28;;;;;;;12.85;11.70;;;;;;;30.10;71.21;101446.22;5043889;28;66451;-42
2024/02/02 02:32:58;;;;;;;12.77;11.45;;;;;;;30.10;70.86;101443.50;5037590;28;70409;-43
2024/02/02 02:35:29;;;;;;;12.52;11.10;;;;;;;30.12;71.08;101449.56;5039311;28;66898;-43
2024/02/02 02:38:00;;;;;;;13.35;11.10;;;;;;;30.12;70.59;101441.44;5053338;28;71319;-43
2024/02/02 02:40:31;;;;;;;14.33;10.80;;;;;;;30.11;70.93;101447.06;5046768;28;66647;-42
2024/02/02 02:43:02;;;;;;;11.90;10.80;;;;;;;30.15;71.09;101446.47;5045689;28;71935;-43
2024/02/02 02:45:33;;;;;;;;;;;;;;;29.85;71.74;101443.19;5049107;28;65972;-43
2024/02/02 02:48:05;;;;;;;11.30;10.40;;;;;;;30.12;71.29;101438.75;5056267;28;69250;-43
2024/02/02 02:50:36;;;;;;;10.82;10.02;;;;;;;30.16;70.91;101433.75;5048433;28;65479;-44
2024/02/02 02:53:07;;;;;;;11.10;10.18;;;;;;;30.11;70.87;101423.53;5053133;28;70570;-43
2024/02/02 02:55:38;;;;;;;9.82;9.10;;;;;;;30.19;70.71;101434.19;5056847;28;67034;-43
2024/02/02 02:58:08;;;;;;;10.55;9.50;;;;;;;30.20;70.94;101430.44;5049511;28;70351;-43
2024/02/02 03:00:39;;;;;;;11.57;10.18;;;;;;;30.25;70.43;101424.44;5040702;28;65978;-44
2024/02/02 03:03:10;;;;;;;12.82;10.48;;;;;;;30.21;70.63;101424.00;5036547;28;68615;-43
2024/02/02 03:05:42;;;;;;;13.60;12.25;;;;;;;30.22;72.51;101425.69;5020584;28;66398;-50
2024/02/02 03:08:14;;;;;;;20.60;15.03;;;;;;;30.30;73.13;101421.13;5047834;28;71173;-42
2024/02/02 03:10:45;;;;;;;25.30;17.67;;;;;;;30.24;73.38;101407.38;5052148;28;65748;-43
2024/02/02 03:13:17;;;;;;;26.35;17.38;;;;;;;30.28;74.02;101418.63;5031139;28;71727;-48
2024/02/02 03:15:48;;;;;;;18.90;16.85;;;;;;;30.24;74.05;101410.09;5018685;28;66238;-43
2024/02/02 03:18:20;;;;;;;26.15;17.60;;;;;;;30.25;73.97;101403.63;5036221;28;71894;-44
2024/02/02 03:20:52;;;;;;;28.55;18.08;;;;;;;30.18;73.94;101391.94;5024607;28;66491;-42
2024/02/02 03:23:24;;;;;;;25.05;17.80;;;;;;;30.25;74.40;101398.22;5033519;28;69367;-47
2024/02/02 03:25:55;;;;;;;28.63;17.08;;;;;;;30.30;74.14;101399.50;5037794;28;66643;-45
2024/02/02 03:28:26;;;;;;;32.15;18.40;;;;;;;30.28;74.48;101400.53;5041956;28;70751;-43
2024/02/02 03:30:57;;;;;;;30.63;18.45;;;;;;;30.31;74.11;101398.44;5055639;28;66993;-41
2024/02/02 03:33:27;;;;;;;36.33;19.00;;;;;;;30.36;73.37;101387.84;5045959;28;70533;-45
2024/02/02 03:35:59;;;;;;;33.95;17.67;;;;;;;30.36;74.25;101387.84;5049031;28;66927;-43
2024/02/02 03:38:29;;;;;;;39.17;19.47;;;;;;;30.13;71.23;101367.34;5026950;28;70158;-44
2024/02/02 03:41:00;;;;;;;27.45;17.17;;;;;;;30.03;68.10;101378.56;5036243;28;66423;-45
2024/02/02 03:43:31;;;;;;;24.10;16.80;;;;;;;29.91;65.97;101377.47;5061373;27;70432;-46
2024/02/02 03:46:01;;;;;;;29.80;15.93;;;;;;;29.78;65.92;101361.19;5048276;28;66139;-45
2024/02/02 03:48:32;;;;;;;21.90;14.57;;;;;;;29.60;64.64;101342.78;5039035;28;69678;-47
2024/02/02 03:51:03;;;;;;;21.15;14.70;;;;;;;29.61;63.83;101356.09;5040017;28;65920;-47
2024/02/02 03:53:34;;;;;;;21.25;14.27;;;;;;;29.51;63.48;101352.09;5035536;28;70025;-42
2024/02/02 03:56:05;;;;;;;21.30;14.05;;;;;;;29.35;62.68;101327.06;5041108;28;66454;-47
2024/02/02 03:58:36;;;;;;;22.23;14.57;;;;;;;29.28;64.18;101326.19;5052226;28;69781;-42
2024/02/02 04:01:07;;;;;;;25.10;12.93;;;;;;;29.34;63.29;101344.31;5058766;28;66477;-43
2024/02/02 04:03:38;;;;;;;23.38;12.43;;;;;;;29.34;62.15;101335.38;5050528;28;70731;-42
2024/02/02 04:06:09;;;;;;;18.23;12.48;;;;;;;29.27;61.58;101329.91;5058036;28;66052;-44
2024/02/02 04:08:40;;;;;;;21.23;11.30;;;;;;;29.15;62.59;101315.31;5040766;28;69850;-44
2024/02/02 04:11:12;;;;;;;25.90;11.50;;;;;;;29.23;63.34;101325.94;5037275;28;66985;-44
2024/02/02 04:13:43;;;;;;;19.48;11.55;;;;;;;29.10;62.57;101298.84;5044169;28;70222;-43
2024/02/02 04:16:14;;;;;;;15.07;10.93;;;;;;;29.22;62.38;101309.94;5051301;28;66439;-45
2024/02/02 04:18:44;;;;;;;14.32;10.00;;;;;;;29.15;61.16;101299.09;5051658;28;70799;-44
2024/02/02 04:21:15;;;;;;;13.65;9.80;;;;;;;29.06;60.28;101294.84;5055025;28;65356;-46
2024/02/02 04:23:46;;;;;;;14.15;9.50;;;;;;;29.03;60.27;101287.13;5041933;28;70200;-44
2024/02/02 04:26:16;;;;;;;16.95;10.15;;;;;;;29.05;59.77;101293.19;5050839;28;66744;-43
2024/02/02 04:28:47;;;;;;;12.85;9.48;;;;;;;28.99;59.43;101283.16;5054654;28;69570;-43
2024/02/02 04:31:18;;;;;;;14.15;9.13;;;;;;;28.93;58.75;101266.72;5054899;28;66357;-44
2024/02/02 04:33:49;;;;;;;16.42;8.45;;;;;;;28.92;57.96;101275.84;5054960;28;69879;-44
2024/02/02 04:36:19;;;;;;;12.80;7.90;;;;;;;28.93;58.14;101277.50;5057456;28;67068;-42
2024/02/02 04:38:50;;;;;;;9.23;7.97;;;;;;;28.88;57.40;101273.75;5055178;28;70505;-43
2024/02/02 04:41:22;;;;;;;9.35;7.85;;;;;;;28.84;57.29;101270.59;5059833;28;66185;-44
2024/02/02 04:43:52;;;;;;;10.45;7.85;;;;;;;28.78;57.98;101252.50;5047882;28;70782;-43
2024/02/02 04:46:24;;;;;;;8.25;6.93;;;;;;;28.80;56.98;101258.53;5040541;28;66281;-43
2024/02/02 04:48:54;;;;;;;10.32;6.78;;;;;;;28.79;56.95;101251.47;5049798;28;70301;-43
2024/02/02 04:51:25;;;;;;;7.55;6.78;;;;;;;28.51;56.82;101198.31;5045563;28;66201;-44
2024/02/02 04:53:56;;;;;;;8.88;7.22;;;;;;;28.83;59.50;101236.53;5054244;28;71600;-43
2024/02/02 04:56:27;;;;;;;10.32;7.03;;;;;;;28.84;58.38;101235.50;5055409;28;66669;-43
2024/02/02 04:58:57;;;;;;;9.35;7.30;;;;;;;28.81;58.65;101218.88;5056332;28;69941;-42
2024/02/02 05:01:28;;;;;;;8.38;7.13;;;;;;;28.91;59.03;101216.63;5055685;28;67210;-44
2024/02/02 05:03:58;;;;;;;10.48;7.10;;;;;;;28.95;58.18;101229.53;5057392;28;70886;-45
2024/02/02 05:06:29;;;;;;;12.45;6.70;;;;;;;28.90;56.79;101213.09;5051934;28;66943;-43
2024/02/02 05:09:00;;;;;;;7.75;6.60;;;;;;;28.85;56.42;101210.16;5040249;28;70904;-50
2024/02/02 05:11:31;;;;;;;12.13;6.90;;;;;;;28.98;56.85;101220.22;5053258;28;66460;-45
2024/02/02 05:14:02;;;;;;;13.30;7.07;;;;;;;28.99;58.31;101204.84;5033298;28;68381;-45
2024/02/02 05:16:32;;;;;;;10.52;6.78;;;;;;;29.00;56.55;101210.03;5023213;28;66895;-46
2024/02/02 05:19:03;;;;;;;13.40;6.35;;;;;;;28.72;56.06;101156.94;5045316;28;69514;-46
2024/02/02 05:21:34;;;;;;;7.70;7.00;;;;;;;28.98;55.59;101200.47;5051391;28;66982;-43
2024/02/02 05:24:05;;;;;;;10.40;6.18;;;;;;;28.96;56.22;101192.56;5047293;28;70228;-43
2024/02/02 05:26:56;;;;;;;6.82;6.28;;;;;;;29.00;55.02;101190.28;5044408;28;66434;-44
2024/02/02 05:29:27;;;;;;;15.25;6.43;;;;;;;28.96;55.63;101185.28;5044759;28;69936;-46
2024/02/02 05:31:57;;;;;;;21.88;6.15;;;;;;;29.01;55.58;101178.47;5045657;28;65645;-49
2024/02/02 05:34:28;;;;;;;9.43;6.30;;;;;;;29.04;56.33;101183.50;5045947;28;69309;-44
2024/02/02 05:37:00;;;;;;;7.93;7.18;;;;;;;29.07;56.28;101173.13;5049153;28;65801;-44
2024/02/02 05:39:31;;;;;;;16.65;7.50;;;;;;;28.99;55.19;101154.34;5042780;28;69169;-45
2024/02/02 05:42:03;;;;;;;8.43;6.75;;;;;;;28.95;57.10;101143.13;5035239;28;66212;-45
2024/02/02 05:44:34;;;;;;;11.67;7.10;;;;;;;29.12;55.06;101159.03;5036571;28;70089;-43
2024/02/02 05:47:05;;;;;;;8.65;6.80;;;;;;;29.13;55.49;101155.28;5049579;28;66731;-44
2024/02/02 05:49:35;;;;;;;7.25;6.00;;;;;;;29.13;56.59;101141.78;5028492;28;70677;-44
2024/02/02 05:52:12;;;;;;;6.70;6.20;;;;;;;29.17;55.62;101159.25;5055740;28;66521;-45
2024/02/02 05:54:43;;;;;;;15.65;5.90;;;;;;;29.15;55.64;101134.31;5031501;28;69878;-44
2024/02/02 05:57:13;;;;;;;9.27;5.80;;;;;;;29.19;56.16;101138.25;5056031;28;66409;-46
2024/02/02 05:59:44;;;;;;;9.60;6.43;;;;;;;29.19;56.66;101140.97;5055085;28;69127;-44
2024/02/02 06:02:15;;;;;;;6.30;5.80;;;;;;;29.18;56.09;101137.44;5053785;28;66328;-42
2024/02/02 06:04:46;;;;;;;5.85;5.35;;;;;;;29.14;55.45;101122.66;5048808;28;70339;-44
2024/02/02 06:07:17;;;;;;;7.38;5.38;;;;;;;29.20;56.18;101112.06;5040097;28;66556;-45
2024/02/02 06:09:47;;;;;;;9.45;6.20;;;;;;;29.25;55.13;101120.41;5047606;28;71255;-43
2024/02/02 06:12:18;;;;;;;7.22;6.63;;;;;;;29.26;55.96;101113.97;5047855;28;67085;-40
2024/02/02 06:14:49;;;;;;;8.20;6.20;;;;;;;29.23;54.55;101099.00;5046508;28;69443;-40
2024/02/02 06:17:19;;;;;;;7.38;5.50;;;;;;;29.21;54.81;101092.97;5047441;28;66400;-43
2024/02/02 06:19:50;;;;;;;7.53;6.10;;;;;;;29.21;54.71;101087.56;5045475;28;69900;-45
2024/02/02 06:22:21;;;;;;;10.85;6.05;;;;;;;29.22;54.27;101086.50;5051895;28;66617;-43
2024/02/02 06:24:52;;;;;;;5.72;5.22;;;;;;;29.31;54.98;101088.00;5052935;28;70314;-43
2024/02/02 06:27:25;;;;;;;6.05;5.45;;;;;;;29.16;55.22;101063.03;5047185;28;65760;-41
2024/02/02 06:29:56;;;;;;;7.80;5.70;;;;;;;29.37;55.68;101084.47;5052117;28;69708;-43
2024/02/02 06:32:27;;;;;;;6.10;5.50;;;;;;;29.31;55.12;101060.13;5043761;28;67452;-44
2024/02/02 06:34:58;;;;;;;6.60;6.05;;;;;;;29.37;54.40;101070.16;5038841;28;70060;-43
2024/02/02 06:37:29;;;;;;;;;;;;;;;29.23;54.24;101063.06;5048739;28;66169;-44
2024/02/02 06:40:03;;;;;;;8.15;5.43;;;;;;;29.37;54.64;101068.28;5038257;28;70871;-43
2024/02/02 06:42:34;;;;;;;6.47;5.35;;;;;;;29.39;54.79;101060.78;5053517;28;66362;-43
2024/02/02 06:45:05;;;;;;;5.43;5.03;;;;;;;29.44;55.78;101057.47;5042858;28;70132;-43
2024/02/02 06:47:37;;;;;;;5.60;5.10;;;;;;;29.37;55.40;101041.25;5035783;28;66292;-43
2024/02/02 06:50:08;;;;;;;5.75;5.15;;;;;;;29.44;54.58;101048.53;5031296;28;70007;-43
2024/02/02 06:52:39;;;;;;;6.57;5.20;;;;;;;29.47;55.05;101048.09;5035479;28;66576;-42
2024/02/02 06:55:12;;;;;;;5.45;4.90;;;;;;;29.48;54.71;101030.88;5038994;28;69429;-43
2024/02/02 06:57:43;;;;;;;5.10;4.70;;;;;;;29.44;54.11;101026.91;5045334;28;65922;-43
2024/02/02 07:00:16;;;;;;;6.20;5.40;;;;;;;29.50;54.63;101026.88;5040112;28;70880;-42
2024/02/02 07:02:47;;;;;;;;;;;;;;;29.34;53.68;101027.31;5049423;28;66408;-41
2024/02/02 07:05:17;;;;;;;4.97;4.57;;;;;;;29.51;53.76;101030.44;5043209;28;70388;-42
2024/02/02 07:07:49;;;;;;;6.35;5.75;;;;;;;29.53;54.32;101022.94;5056459;28;65908;-42
2024/02/02 07:10:21;;;;;;;5.47;5.07;;;;;;;29.54;54.73;101016.53;5036929;28;70361;-42
2024/02/02 07:12:54;;;;;;;5.73;5.23;;;;;;;29.56;54.59;101014.41;5041994;28;66735;-42
2024/02/02 07:15:27;;;;;;;5.28;4.88;;;;;;;29.56;54.34;101014.41;5037949;28;70281;-42
2024/02/02 07:17:58;;;;;;;4.60;4.20;;;;;;;29.55;53.44;101018.16;5046858;28;65947;-44
2024/02/02 07:20:29;;;;;;;5.22;4.72;;;;;;;29.56;53.92;101012.56;5037116;28;69323;-43
2024/02/02 07:23:03;;;;;;;5.60;5.15;;;;;;;29.59;53.65;101003.22;5045259;28;65116;-43
2024/02/02 07:25:40;;;;;;;5.78;5.28;;;;;;;29.13;52.88;100912.16;5044741;28;70378;-43
2024/02/02 07:28:37;;;;;;;5.85;5.25;;;;;;;29.56;52.81;100992.78;5052940;28;66588;-42
2024/02/02 07:31:21;;;;;;;8.88;6.25;;;;;;;29.49;53.44;100964.97;5041415;28;70183;-43
2024/02/02 07:33:52;;;;;;;9.50;5.82;;;;;;;29.62;54.22;100981.16;5038662;28;66440;-43
2024/02/02 07:36:35;;;;;;;6.28;5.78;;;;;;;29.65;53.58;100978.06;5050183;28;70392;-42
2024/02/02 07:39:26;;;;;;;8.02;6.40;;;;;;;29.07;53.30;100880.59;5053107;28;65922;-42
2024/02/02 07:41:58;;;;;;;6.78;6.10;;;;;;;29.57;53.62;100946.66;5053142;28;69547;-45
2024/02/02 07:44:28;;;;;;;6.37;5.70;;;;;;;29.65;53.61;100959.16;5056662;28;66087;-45
2024/02/02 07:46:59;;;;;;;5.68;4.95;;;;;;;29.69;53.01;100971.19;5054974;28;70589;-45
2024/02/02 07:49:30;;;;;;;11.18;6.03;;;;;;;29.68;53.26;100969.53;5054044;28;66026;-42
2024/02/02 07:52:01;;;;;;;6.07;5.35;;;;;;;29.74;53.47;100960.59;5055591;28;69614;-43
2024/02/02 07:54:31;;;;;;;7.13;6.35;;;;;;;29.77;53.33;100962.88;5057695;28;65517;-43
2024/02/02 07:57:02;;;;;;;9.93;5.40;;;;;;;29.66;52.95;100939.19;5053814;28;71401;-45
2024/02/02 07:59:33;;;;;;;5.55;5.15;;;;;;;29.83;54.71;100956.59;5048230;28;65599;-45
2024/02/02 08:02:04;;;;;;;5.70;5.30;;;;;;;29.83;53.74;100967.41;5052050;28;69738;-41
2024/02/02 08:04:35;;;;;;;9.13;5.80;;;;;;;29.85;53.79;100959.09;5054479;28;66862;-42
2024/02/02 08:07:07;;;;;;;9.90;5.97;;;;;;;29.55;53.44;100904.66;5053457;28;70268;-41
2024/02/02 08:09:39;;;;;;;6.50;5.80;;;;;;;29.89;53.45;100964.91;5056078;28;67576;-41
2024/02/02 08:12:09;;;;;;;6.00;5.57;;;;;;;29.94;53.60;100957.00;5053918;28;70508;-41
2024/02/02 08:14:40;;;;;;;6.10;5.50;;;;;;;29.98;53.77;100958.25;5039124;28;64646;-43
2024/02/02 08:17:11;;;;;;;6.30;5.50;;;;;;;29.99;53.12;100959.91;5051109;28;69914;-42
2024/02/02 08:19:42;;;;;;;7.78;5.45;;;;;;;29.94;52.65;100946.19;5039933;28;66598;-42
2024/02/02 08:22:13;;;;;;;5.43;4.95;;;;;;;29.96;52.83;100960.34;5045963;28;71254;-42
2024/02/02 08:24:44;;;;;;;5.07;4.68;;;;;;;30.00;52.86;100958.84;5049410;28;66021;-41
2024/02/02 08:27:19;;;;;;;5.97;5.18;;;;;;;29.86;53.15;100951.81;5040271;28;69636;-43
2024/02/02 08:29:50;;;;;;;9.20;5.68;;;;;;;29.84;54.18;100947.47;5053009;28;65884;-44
2024/02/02 08:32:20;;;;;;;20.75;5.72;;;;;;;29.97;54.28;100953.88;5052793;28;69944;-43
2024/02/02 08:34:51;;;;;;;7.78;4.72;;;;;;;30.05;54.49;100951.75;5058559;28;66176;-42
2024/02/02 08:37:22;;;;;;;5.30;4.82;;;;;;;30.13;55.16;100956.13;5056757;28;70240;-43
2024/02/02 08:39:56;;;;;;;10.43;5.43;;;;;;;30.08;55.54;100947.81;5051386;28;66109;-43
2024/02/02 08:42:28;;;;;;;13.95;5.28;;;;;;;30.35;55.47;100961.28;5055681;28;70503;-44
2024/02/02 08:45:00;;;;;;;8.23;4.90;;;;;;;30.46;56.36;100960.59;5038968;28;65840;-42
2024/02/02 08:47:34;;;;;;;10.13;4.47;;;;;;;30.49;56.04;100950.16;5037404;28;69860;-43
2024/02/02 08:50:06;;;;;;;5.60;4.45;;;;;;;30.58;56.50;100953.44;5037971;28;66396;-42
2024/02/02 08:52:43;;;;;;;8.25;4.50;;;;;;;30.75;56.81;100964.59;5036374;28;69489;-42
2024/02/02 08:55:47;;;;;;;5.57;4.43;;;;;;;30.77;57.59;100967.91;5052274;28;66737;-43
2024/02/02 08:58:23;;;;;;;4.97;4.47;;;;;;;30.61;57.47;100925.94;5043219;28;70210;-45
2024/02/02 09:00:54;;;;;;;7.53;4.22;;;;;;;30.91;57.68;100957.88;5045714;28;66457;-42
2024/02/02 09:03:42;;;;;;;5.80;4.50;;;;;;;30.76;58.30;100930.22;5038216;28;71847;-42
2024/02/02 09:06:42;;;;;;;4.43;3.90;;;;;;;31.00;58.46;100964.66;5038932;28;66065;-43
2024/02/02 09:09:17;;;;;;;6.82;4.28;;;;;;;30.72;58.31;100916.28;5039050;28;69691;-41
2024/02/02 09:11:50;;;;;;;8.77;4.00;;;;;;;31.20;58.68;100971.81;5048830;28;66140;-41
2024/02/02 09:14:21;;;;;;;5.45;4.18;;;;;;;31.23;58.43;100977.66;5037548;28;69185;-43
2024/02/02 09:16:53;;;;;;;;;;;;;;;31.16;59.06;100980.41;5056465;28;66552;-43
2024/02/02 09:19:45;;;;;;;6.80;3.90;;;;;;;31.30;59.05;100983.00;5049954;28;69427;-41
2024/02/02 09:22:17;;;;;;;6.95;4.18;;;;;;;31.31;59.03;100984.66;5053100;28;66781;-40
2024/02/02 09:24:51;;;;;;;5.30;3.88;;;;;;;31.42;59.33;100992.09;5047507;28;70355;-41
2024/02/02 09:27:46;;;;;;;4.70;3.80;;;;;;;31.48;59.54;100995.81;5058358;28;66015;-42
2024/02/02 09:30:22;;;;;;;10.50;4.53;;;;;;;31.43;59.32;100982.13;5064852;28;69933;-40
2024/02/02 09:32:52;;;;;;;5.68;4.68;;;;;;;31.49;59.69;100987.47;5052628;28;65855;-41
2024/02/02 09:35:54;;;;;;;6.50;4.18;;;;;;;31.50;59.65;100996.41;5054211;28;68853;-41
2024/02/02 09:38:26;;;;;;;5.65;5.25;;;;;;;31.55;60.00;100996.59;5048191;28;66226;-42
2024/02/02 09:41:06;;;;;;;10.80;7.72;;;;;;;31.55;59.95;100991.16;5053867;28;70484;-43
2024/02/02 09:43:55;;;;;;;16.55;8.85;;;;;;;31.56;59.97;100993.63;5054666;28;66120;-43
2024/02/02 09:46:51;;;;;;;11.68;10.18;;;;;;;31.63;60.72;101009.03;5053469;28;70338;-43
2024/02/02 09:49:41;;;;;;;21.05;14.52;;;;;;;31.55;62.60;100989.28;5055615;28;66310;-49
2024/02/02 09:52:22;;;;;;;24.83;16.80;;;;;;;31.67;64.12;100997.50;5046631;28;69717;-42
2024/02/02 09:55:14;;;;;;;30.90;20.80;;;;;;;31.68;64.70;100995.63;5050874;28;66753;-51
2024/02/02 09:58:26;;;;;;;38.60;24.55;;;;;;;31.75;64.66;101007.25;5051227;28;69637;-46
2024/02/02 10:01:05;;;;;;;41.53;26.00;;;;;;;31.44;65.03;100960.19;5022375;28;66550;-43
2024/02/02 10:03:47;;;;;;;40.40;27.83;;;;;;;31.78;65.44;101018.47;5055237;28;70553;-44
2024/02/02 10:06:36;;;;;;;39.17;27.80;;;;;;;31.79;64.96;101024.75;5041451;28;66082;-43
2024/02/02 10:09:39;;;;;;;39.75;28.15;;;;;;;31.82;64.67;101025.13;5055572;28;69914;-43
2024/02/02 10:12:21;;;;;;;33.63;24.00;;;;;;;31.58;63.38;100974.44;5039007;28;66609;-43
2024/02/02 10:15:29;;;;;;;50.58;30.60;;;;;;;31.97;65.30;101043.78;5039521;28;70033;-46
2024/02/02 10:18:22;;;;;;;45.58;26.15;;;;;;;31.53;65.82;100983.25;5042459;28;66256;-47
2024/02/02 10:21:30;;;;;;;35.63;21.95;;;;;;;31.51;65.93;100973.66;5034384;28;70775;-42
2024/02/02 10:24:21;;;;;;;29.08;19.40;;;;;;;31.94;65.77;101043.41;5049272;28;66219;-44
2024/02/02 10:27:15;;;;;;;20.00;15.43;;;;;;;31.53;65.62;100969.69;5040702;28;70269;-45
2024/02/02 10:29:51;;;;;;;25.05;13.82;;;;;;;32.02;66.05;101046.66;5052260;28;66414;-45
2024/02/02 10:32:43;;;;;;;23.98;13.52;;;;;;;32.04;66.18;101050.00;5058785;28;70608;-42
2024/02/02 10:35:32;;;;;;;13.93;10.45;;;;;;;32.01;66.29;101050.44;5049256;28;65388;-44
2024/02/02 10:38:34;;;;;;;12.68;8.95;;;;;;;31.99;66.02;101057.97;5041407;28;69473;-44
2024/02/02 10:41:40;;;;;;;12.43;8.23;;;;;;;32.01;66.08;101065.88;5052943;28;65400;-44
2024/02/02 10:44:36;;;;;;;8.77;6.60;;;;;;;32.01;66.25;101072.16;5044487;28;70542;-48
2024/02/02 10:47:28;;;;;;;12.15;6.82;;;;;;;31.97;66.70;101075.53;5044730;28;66946;-44
2024/02/02 10:50:16;;;;;;;10.45;6.05;;;;;;;31.99;67.29;101085.09;5038499;28;69666;-43
2024/02/02 10:53:06;;;;;;;7.75;6.07;;;;;;;31.98;67.52;101083.44;5052148;28;66863;-42
2024/02/02 10:56:06;;;;;;;7.50;6.38;;;;;;;31.97;67.49;101092.63;5044306;28;70419;-43
2024/02/02 10:58:56;;;;;;;8.85;7.13;;;;;;;31.85;68.05;101085.41;5041907;28;65743;-43
2024/02/02 11:01:38;;;;;;;14.60;7.25;;;;;;;31.96;68.30;101101.81;5059903;28;69835;-43
2024/02/02 11:04:23;;;;;;;8.50;6.70;;;;;;;31.96;68.50;101101.81;5044029;28;66727;-44
2024/02/02 11:06:54;;;;;;;9.85;7.53;;;;;;;31.95;68.65;101108.28;5041706;28;69921;-45
2024/02/02 11:09:56;;;;;;;10.25;6.72;;;;;;;31.96;68.93;101107.25;5047294;28;65699;-43
2024/02/02 11:12:33;;;;;;;;;;;;;;;31.76;69.64;101106.53;5056515;28;70404;-43
2024/02/02 11:15:21;;;;;;;6.40;5.50;;;;;;;31.54;69.02;101060.84;5039167;28;66127;-44
2024/02/02 11:18:29;;;;;;;11.00;5.82;;;;;;;31.86;69.33;101111.47;5050240;28;43221;-45
2024/02/02 11:21:18;;;;;;;5.63;5.00;;;;;;;31.87;69.40;101116.66;5023999;28;66268;-43
2024/02/02 11:24:29;;;;;;;5.10;4.53;;;;;;;31.81;69.78;101120.28;5055499;28;70323;-44
2024/02/02 11:27:16;;;;;;;4.90;4.17;;;;;;;31.81;69.92;101126.53;5043946;28;67186;-43
2024/02/02 11:30:10;;;;;;;6.45;5.35;;;;;;;31.81;69.84;101123.00;5043230;28;70666;-43
2024/02/02 11:33:11;;;;;;;8.63;4.97;;;;;;;31.82;70.17;101130.09;5024731;28;66246;-43
2024/02/02 11:36:00;;;;;;;7.45;4.70;;;;;;;31.79;70.74;101131.38;5060193;28;70435;-44
2024/02/02 11:38:59;;;;;;;7.75;5.25;;;;;;;31.69;70.76;101127.47;5058771;28;66334;-45
2024/02/02 11:41:33;;;;;;;6.30;5.15;;;;;;;31.76;70.68;101139.09;5054749;28;70347;-45
2024/02/02 11:44:06;;;;;;;5.25;4.78;;;;;;;31.75;70.83;101142.88;5052026;28;66491;-44
2024/02/02 11:46:38;;;;;;;7.13;4.82;;;;;;;31.75;71.07;101142.88;5051015;28;69734;-45
2024/02/02 11:49:09;;;;;;;;;;;;;;;31.63;71.69;101147.34;5055871;28;66067;-43
2024/02/02 11:51:48;;;;;;;5.23;4.73;;;;;;;31.50;70.09;101100.28;5031338;28;70115;-43
2024/02/02 11:54:22;;;;;;;5.90;4.68;;;;;;;31.78;69.62;101142.41;5042004;28;65897;-43
2024/02/02 11:56:55;;;;;;;4.85;4.40;;;;;;;31.40;71.29;101091.81;5051754;28;69562;-43